Time;durP1;ratioP1;P1;durP2;ratioP2;P2;SDS_P1;SDS_P2;PMS_P1;PMS_P2;Temp;Humidity;BMP_temperature;BMP_pressure;BME280_temperature;BME280_humidity;BME280_pressure;Samples;Min_cycle;Max_cycle;Signal;HPM_P1;HPM_P2
2023/07/30 00:00:19;;;;;;;5.70;2.22;;;21.90;58.90;;;;;;5094511;28;20194;-57
2023/07/30 00:02:47;;;;;;;5.85;2.03;;;21.90;58.80;;;;;;5094473;28;20248;-58
2023/07/30 00:05:14;;;;;;;9.48;2.22;;;21.90;58.90;;;;;;5093671;28;20190;-55
2023/07/30 00:07:42;;;;;;;6.85;1.85;;;21.90;58.90;;;;;;5093841;28;20193;-57
2023/07/30 00:10:09;;;;;;;9.73;2.15;;;21.90;58.90;;;;;;5094018;28;20186;-57
2023/07/30 00:12:37;;;;;;;8.77;2.05;;;21.90;58.90;;;;;;5094316;28;20243;-56
2023/07/30 00:15:08;;;;;;;5.80;1.70;;;21.90;58.80;;;;;;5094157;28;20224;-56
2023/07/30 00:17:35;;;;;;;5.60;1.70;;;21.90;58.80;;;;;;5094264;28;20186;-55
2023/07/30 00:20:03;;;;;;;7.00;2.10;;;21.90;58.80;;;;;;5094610;28;20243;-57
2023/07/30 00:22:30;;;;;;;11.95;2.35;;;21.80;58.70;;;;;;5093636;28;20282;-56
2023/07/30 00:24:57;;;;;;;7.60;2.33;;;21.90;58.80;;;;;;5094112;28;20190;-55
2023/07/30 00:27:25;;;;;;;8.32;1.92;;;21.90;58.80;;;;;;5094295;28;20218;-55
2023/07/30 00:29:52;;;;;;;7.60;2.00;;;21.90;58.80;;;;;;5093903;28;20182;-58
2023/07/30 00:32:21;;;;;;;10.18;2.30;;;21.90;58.80;;;;;;5093636;28;20240;-56
2023/07/30 00:34:48;;;;;;;8.38;2.10;;;21.90;58.80;;;;;;5094090;28;20190;-57
2023/07/30 00:37:16;;;;;;;7.70;2.25;;;21.80;58.70;;;;;;5093165;28;20226;-56
2023/07/30 00:39:43;;;;;;;9.52;2.03;;;21.80;58.70;;;;;;5093741;28;20190;-57
2023/07/30 00:42:11;;;;;;;4.72;2.00;;;21.90;58.80;;;;;;5093589;28;20222;-55
2023/07/30 00:44:38;;;;;;;11.25;2.40;;;21.80;58.70;;;;;;5093734;28;20182;-56
2023/07/30 00:47:06;;;;;;;6.70;2.03;;;21.90;58.70;;;;;;5095248;28;20218;-57
2023/07/30 00:49:35;;;;;;;6.72;2.05;;;21.90;58.80;;;;;;5093539;28;20190;-56
2023/07/30 00:52:03;;;;;;;9.15;2.13;;;21.80;58.70;;;;;;5093120;28;20221;-56
2023/07/30 00:54:31;;;;;;;6.30;2.15;;;21.80;58.70;;;;;;5093565;28;20191;-57
2023/07/30 00:56:58;;;;;;;7.82;1.80;;;21.90;58.70;;;;;;5093550;28;20233;-56
2023/07/30 00:59:26;;;;;;;7.70;2.28;;;21.80;58.70;;;;;;5093377;28;20186;-55
2023/07/30 01:01:54;;;;;;;6.07;1.95;;;21.80;58.60;;;;;;5093153;28;20253;-57
2023/07/30 01:04:22;;;;;;;7.80;2.30;;;21.90;58.70;;;;;;5093322;28;20182;-56
2023/07/30 01:06:51;;;;;;;4.90;1.80;;;21.80;58.60;;;;;;5092890;28;20217;-55
2023/07/30 01:09:18;;;;;;;8.68;2.00;;;21.80;58.60;;;;;;5092895;28;20225;-57
2023/07/30 01:11:46;;;;;;;7.72;2.08;;;21.80;58.60;;;;;;5092925;28;20218;-55
2023/07/30 01:14:15;;;;;;;9.57;2.13;;;21.80;58.60;;;;;;5093148;28;20271;-52
2023/07/30 01:16:43;;;;;;;6.93;2.08;;;21.80;58.60;;;;;;5093271;28;20240;-55
2023/07/30 01:19:11;;;;;;;9.93;2.20;;;21.80;58.60;;;;;;5093083;28;20193;-57
2023/07/30 01:21:40;;;;;;;6.05;2.05;;;21.80;58.60;;;;;;5092530;28;20232;-55
2023/07/30 01:24:07;;;;;;;8.65;2.05;;;21.90;58.70;;;;;;5092989;28;20211;-56
2023/07/30 01:26:40;;;;;;;8.77;2.17;;;21.80;58.50;;;;;;5092780;28;20628;-57
2023/07/30 01:29:17;;;;;;;6.72;2.15;;;21.80;58.50;;;;;;5092506;28;20186;-56
2023/07/30 01:31:47;;;;;;;9.27;2.47;;;21.80;58.50;;;;;;5092611;28;20243;-54
2023/07/30 01:34:15;;;;;;;4.65;1.73;;;21.80;58.50;;;;;;5092735;28;20236;-57
2023/07/30 01:36:44;;;;;;;8.77;2.63;;;21.80;59.10;;;;;;5092072;28;20242;-57
2023/07/30 01:39:12;;;;;;;9.90;2.17;;;21.80;58.50;;;;;;5092946;28;20189;-57
2023/07/30 01:41:40;;;;;;;6.03;2.10;;;21.80;58.50;;;;;;5092806;28;20216;-54
2023/07/30 01:44:07;;;;;;;8.35;2.22;;;21.80;58.50;;;;;;5092763;28;20198;-56
2023/07/30 01:46:35;;;;;;;8.48;2.05;;;21.80;58.50;;;;;;5092716;28;20209;-56
2023/07/30 01:49:03;;;;;;;7.85;2.10;;;21.80;58.50;;;;;;5092629;28;20186;-56
2023/07/30 01:51:31;;;;;;;5.90;2.13;;;21.80;58.50;;;;;;5092099;28;20214;-56
2023/07/30 01:53:59;;;;;;;7.82;2.25;;;21.80;58.50;;;;;;5092552;28;20192;-56
2023/07/30 01:56:27;;;;;;;6.28;2.10;;;21.80;58.50;;;;;;5092481;28;20232;-57
2023/07/30 01:58:55;;;;;;;8.32;2.50;;;21.80;58.50;;;;;;5092460;28;20190;-55
2023/07/30 02:01:23;;;;;;;6.95;1.92;;;21.80;58.50;;;;;;5092577;28;20210;-56
2023/07/30 02:03:50;;;;;;;4.68;1.70;;;21.80;58.50;;;;;;5092489;28;20187;-56
2023/07/30 02:06:18;;;;;;;6.60;2.10;;;21.80;58.50;;;;;;5091583;28;20295;-57
2023/07/30 02:08:45;;;;;;;10.02;2.20;;;21.80;58.50;;;;;;5092075;28;20190;-53
2023/07/30 02:11:14;;;;;;;6.35;2.28;;;21.80;58.50;;;;;;5092500;28;20220;-58
2023/07/30 02:13:42;;;;;;;6.00;2.10;;;21.80;58.50;;;;;;5092351;28;20197;-57
2023/07/30 02:16:10;;;;;;;6.60;1.83;;;21.80;58.50;;;;;;5092306;28;20256;-57
2023/07/30 02:18:37;;;;;;;8.23;1.98;;;21.80;58.50;;;;;;5091948;28;20209;-57
2023/07/30 02:21:05;;;;;;;8.23;2.22;;;21.80;58.50;;;;;;5091734;28;20210;-57
2023/07/30 02:23:35;;;;;;;7.13;2.38;;;21.80;58.50;;;;;;5092321;28;20194;-58
2023/07/30 02:26:03;;;;;;;5.68;2.22;;;21.80;58.50;;;;;;5092282;28;20210;-57
2023/07/30 02:28:32;;;;;;;6.35;2.08;;;21.80;58.50;;;;;;5093204;28;20194;-57
2023/07/30 02:30:59;;;;;;;7.47;2.20;;;21.80;58.50;;;;;;5095893;28;20241;-55
2023/07/30 02:33:26;;;;;;;6.53;1.95;;;21.80;58.50;;;;;;5096172;28;20196;-57
2023/07/30 02:35:54;;;;;;;6.32;1.67;;;21.80;58.50;;;;;;5095700;28;20242;-56
2023/07/30 02:38:21;;;;;;;6.07;2.15;;;21.80;58.50;;;;;;5096054;28;20228;-57
2023/07/30 02:40:49;;;;;;;5.18;1.95;;;21.80;58.50;;;;;;5095713;28;20224;-55
2023/07/30 02:43:16;;;;;;;6.43;2.25;;;21.80;58.50;;;;;;5095710;28;20194;-57
2023/07/30 02:45:48;;;;;;;6.05;1.80;;;21.80;58.50;;;;;;5095648;28;20935;-53
2023/07/30 02:48:16;;;;;;;5.70;2.10;;;21.80;58.50;;;;;;5095846;28;20273;-57
2023/07/30 02:50:43;;;;;;;6.45;2.35;;;21.70;59.00;;;;;;5095347;28;20194;-54
2023/07/30 02:53:29;;;;;;;6.32;2.08;;;21.80;58.50;;;;;;5095874;28;20194;-54
2023/07/30 02:55:57;;;;;;;6.60;2.10;;;21.80;58.50;;;;;;5094883;28;20222;-53
2023/07/30 02:58:25;;;;;;;7.35;1.90;;;21.70;58.50;;;;;;5095686;28;20190;-58
2023/07/30 03:00:53;;;;;;;9.20;2.38;;;21.80;58.50;;;;;;5095439;28;20321;-56
2023/07/30 03:03:22;;;;;;;10.25;2.53;;;21.80;58.60;;;;;;5095685;28;20605;-56
2023/07/30 03:05:50;;;;;;;8.35;2.33;;;21.70;58.50;;;;;;5095035;28;20210;-57
2023/07/30 03:08:17;;;;;;;9.32;2.00;;;21.80;58.60;;;;;;5095559;28;20183;-56
2023/07/30 03:10:45;;;;;;;8.27;2.30;;;21.80;58.60;;;;;;5095536;28;20221;-58
2023/07/30 03:13:12;;;;;;;7.30;2.25;;;21.80;58.60;;;;;;5095545;28;20186;-56
2023/07/30 03:15:40;;;;;;;5.82;2.40;;;21.80;58.60;;;;;;5095372;28;20186;-54
2023/07/30 03:18:08;;;;;;;8.75;2.53;;;21.80;58.60;;;;;;5095307;28;20183;-54
2023/07/30 03:20:36;;;;;;;5.85;2.20;;;21.80;58.60;;;;;;5095372;28;20175;-57
2023/07/30 03:23:09;;;;;;;8.00;2.20;;;21.80;58.60;;;;;;5095324;28;20273;-55
2023/07/30 03:25:37;;;;;;;7.10;2.10;;;21.80;58.50;;;;;;5095306;28;20182;-56
2023/07/30 03:28:07;;;;;;;7.03;2.03;;;21.70;58.50;;;;;;5095177;28;20192;-56
2023/07/30 03:30:34;;;;;;;6.65;2.25;;;21.80;59.20;;;;;;5094804;28;20250;-54
2023/07/30 03:33:01;;;;;;;4.82;2.15;;;21.70;58.50;;;;;;5095113;28;20186;-57
2023/07/30 03:35:30;;;;;;;6.60;1.92;;;21.80;58.50;;;;;;5094794;28;20213;-57
2023/07/30 03:37:57;;;;;;;6.53;2.00;;;21.80;58.50;;;;;;5094917;28;20217;-58
2023/07/30 03:40:25;;;;;;;8.00;2.40;;;21.80;58.50;;;;;;5093723;28;20194;-57
2023/07/30 03:42:52;;;;;;;4.82;2.22;;;21.80;58.50;;;;;;5095080;28;20226;-57
2023/07/30 03:45:20;;;;;;;6.80;2.22;;;21.80;58.50;;;;;;5094949;28;20224;-57
2023/07/30 03:47:48;;;;;;;7.10;2.42;;;21.80;58.50;;;;;;5094983;28;20214;-57
2023/07/30 03:50:15;;;;;;;7.57;2.25;;;21.70;58.40;;;;;;5094236;28;20191;-58
2023/07/30 03:52:44;;;;;;;5.72;2.20;;;21.70;58.40;;;;;;5094551;28;20250;-56
2023/07/30 03:55:12;;;;;;;7.82;2.22;;;21.80;58.50;;;;;;5094369;28;20239;-57
2023/07/30 03:57:39;;;;;;;6.90;2.45;;;21.80;58.50;;;;;;5094328;28;20233;-58
2023/07/30 04:00:08;;;;;;;6.35;2.22;;;21.70;58.40;;;;;;5094545;28;20190;-57
2023/07/30 04:02:35;;;;;;;7.20;2.25;;;21.70;58.40;;;;;;5095272;28;20225;-57
2023/07/30 04:05:03;;;;;;;5.25;2.20;;;21.80;58.50;;;;;;5093624;28;20277;-58
2023/07/30 04:07:30;;;;;;;7.50;2.20;;;21.70;58.40;;;;;;5094592;28;20214;-56
2023/07/30 04:09:59;;;;;;;7.45;2.45;;;21.70;58.40;;;;;;5094339;28;20259;-57
2023/07/30 04:12:27;;;;;;;5.90;2.10;;;21.70;58.40;;;;;;5094470;28;20210;-56
2023/07/30 04:14:54;;;;;;;7.20;2.30;;;21.70;58.40;;;;;;5094338;28;20287;-57
2023/07/30 04:17:21;;;;;;;8.40;2.25;;;21.70;58.40;;;;;;5093978;28;20229;-56
2023/07/30 04:19:49;;;;;;;8.02;2.30;;;21.70;58.40;;;;;;5093321;28;20194;-56
2023/07/30 04:22:16;;;;;;;5.97;2.15;;;21.70;58.40;;;;;;5094249;28;20296;-56
2023/07/30 04:24:44;;;;;;;7.35;2.25;;;21.80;58.50;;;;;;5093778;28;20194;-56
2023/07/30 04:27:13;;;;;;;10.10;2.15;;;21.70;58.40;;;;;;5093853;28;20278;-56
2023/07/30 04:29:40;;;;;;;8.77;2.13;;;21.70;58.40;;;;;;5094007;28;20218;-56
2023/07/30 04:32:08;;;;;;;8.07;2.72;;;21.70;58.40;;;;;;5093675;28;20259;-56
2023/07/30 04:34:36;;;;;;;8.38;2.38;;;21.70;58.40;;;;;;5093828;28;20239;-53
2023/07/30 04:37:03;;;;;;;7.40;2.47;;;21.70;58.40;;;;;;5093910;28;20651;-55
2023/07/30 04:39:32;;;;;;;9.15;2.53;;;21.70;58.40;;;;;;5094177;28;20190;-56
2023/07/30 04:42:03;;;;;;;7.43;2.00;;;21.70;58.40;;;;;;5093755;28;20224;-58
2023/07/30 04:44:32;;;;;;;5.75;2.20;;;21.70;58.40;;;;;;5093683;28;20190;-59
2023/07/30 04:46:59;;;;;;;7.68;2.35;;;21.70;58.50;;;;;;5093750;28;20221;-60
2023/07/30 04:49:26;;;;;;;5.65;2.13;;;21.70;58.40;;;;;;5093119;28;20187;-57
2023/07/30 04:51:54;;;;;;;5.45;2.38;;;21.70;59.10;;;;;;5093194;28;20217;-60
2023/07/30 04:54:22;;;;;;;6.97;2.30;;;21.70;58.40;;;;;;5093515;28;20247;-59
2023/07/30 04:56:49;;;;;;;7.18;2.72;;;21.70;58.50;;;;;;5093414;28;20275;-57
2023/07/30 04:59:17;;;;;;;8.27;2.72;;;21.70;58.40;;;;;;5093455;28;20198;-53
2023/07/30 05:01:46;;;;;;;7.10;2.20;;;21.70;58.50;;;;;;5093210;28;20214;-55
2023/07/30 05:04:13;;;;;;;7.28;2.83;;;21.70;58.50;;;;;;5093355;28;20200;-56
2023/07/30 05:06:41;;;;;;;6.75;2.20;;;21.70;58.50;;;;;;5092863;28;20210;-53
2023/07/30 05:09:08;;;;;;;9.05;2.47;;;21.70;58.50;;;;;;5093236;28;20186;-57
2023/07/30 05:11:36;;;;;;;6.10;2.33;;;21.70;58.50;;;;;;5093306;28;20225;-53
2023/07/30 05:14:04;;;;;;;8.90;2.60;;;21.70;58.50;;;;;;5093247;28;20244;-57
2023/07/30 05:16:31;;;;;;;7.68;2.40;;;21.70;58.50;;;;;;5093060;28;20311;-54
2023/07/30 05:19:00;;;;;;;6.68;2.63;;;21.70;58.50;;;;;;5093043;28;20275;-56
2023/07/30 05:28:24;;;;;;;11.02;3.03;;;21.70;58.40;;;;;;5092699;28;20192;-54
2023/07/30 05:30:51;;;;;;;5.40;1.98;;;21.70;58.50;;;;;;5092794;28;20237;-54
2023/07/30 05:33:18;;;;;;;7.55;2.80;;;21.70;58.50;;;;;;5092842;28;20198;-56
2023/07/30 05:35:47;;;;;;;8.15;2.90;;;21.70;58.50;;;;;;5092606;28;20198;-56
2023/07/30 05:38:15;;;;;;;5.75;2.38;;;21.70;58.50;;;;;;5092681;28;20214;-55
2023/07/30 05:40:43;;;;;;;7.72;2.80;;;21.70;58.40;;;;;;5092523;28;20194;-59
2023/07/30 05:43:10;;;;;;;11.75;2.47;;;21.70;58.50;;;;;;5092940;28;20209;-57
2023/07/30 05:45:38;;;;;;;7.55;2.72;;;21.70;58.50;;;;;;5093027;28;20193;-57
2023/07/30 05:48:05;;;;;;;9.93;2.83;;;21.70;58.40;;;;;;5092798;28;20218;-57
2023/07/30 05:50:33;;;;;;;9.20;2.80;;;21.70;58.40;;;;;;5092117;28;20190;-56
2023/07/30 05:53:05;;;;;;;10.13;3.33;;;21.70;58.40;;;;;;5092847;28;20213;-56
2023/07/30 05:55:32;;;;;;;5.10;2.58;;;21.70;58.40;;;;;;5092621;28;20190;-56
2023/07/30 05:58:00;;;;;;;9.50;2.58;;;21.70;58.40;;;;;;5092035;28;20232;-55
2023/07/30 06:00:28;;;;;;;10.43;3.30;;;21.70;58.40;;;;;;5093016;28;20186;-54
2023/07/30 06:02:55;;;;;;;8.05;3.13;;;21.60;58.30;;;;;;5092103;28;20214;-54
2023/07/30 06:05:22;;;;;;;6.95;3.00;;;21.70;58.40;;;;;;5091897;28;20201;-58
2023/07/30 06:07:50;;;;;;;11.07;3.40;;;21.70;58.40;;;;;;5092537;28;20217;-56
2023/07/30 06:10:19;;;;;;;7.25;2.75;;;21.70;58.30;;;;;;5092405;28;20218;-56
2023/07/30 06:12:46;;;;;;;11.77;2.80;;;21.70;58.30;;;;;;5092549;28;20239;-56
2023/07/30 06:15:14;;;;;;;7.78;3.08;;;21.70;58.30;;;;;;5092360;28;20186;-56
2023/07/30 06:17:41;;;;;;;6.88;2.70;;;21.70;58.30;;;;;;5092379;28;20229;-57
2023/07/30 06:20:10;;;;;;;9.75;3.10;;;21.70;58.30;;;;;;5091756;28;20186;-56
2023/07/30 06:22:37;;;;;;;7.88;3.08;;;21.70;58.30;;;;;;5092444;28;20221;-56
2023/07/30 06:25:05;;;;;;;5.65;2.80;;;21.60;58.20;;;;;;5092292;28;20197;-56
2023/07/30 06:27:34;;;;;;;8.70;3.40;;;21.60;58.20;;;;;;5092376;28;20275;-55
2023/07/30 06:30:02;;;;;;;10.48;3.65;;;21.70;58.30;;;;;;5092261;28;20189;-55
2023/07/30 06:32:29;;;;;;;10.68;3.10;;;21.70;58.30;;;;;;5091892;28;20276;-56
2023/07/30 06:34:57;;;;;;;9.32;3.30;;;21.70;58.30;;;;;;5091853;28;20198;-57
2023/07/30 06:37:25;;;;;;;10.48;2.97;;;21.60;58.20;;;;;;5091838;28;20226;-55
2023/07/30 06:39:52;;;;;;;9.93;3.10;;;21.70;58.20;;;;;;5091842;28;20186;-55
2023/07/30 06:42:19;;;;;;;7.40;3.17;;;21.60;58.20;;;;;;5092265;28;20279;-56
2023/07/30 06:44:48;;;;;;;6.18;2.78;;;21.70;58.20;;;;;;5092094;28;20186;-58
2023/07/30 06:49:57;;;;;;;9.45;3.28;;;21.70;58.20;;;;;;5091378;28;20202;-56
2023/07/30 06:52:25;;;;;;;7.47;3.00;;;21.70;58.20;;;;;;5092173;28;20214;-54
2023/07/30 06:54:52;;;;;;;8.18;2.90;;;21.60;58.10;;;;;;5091754;28;20251;-56
2023/07/30 06:57:26;;;;;;;8.93;2.95;;;21.70;58.20;;;;;;5091963;28;20233;-55
2023/07/30 06:59:55;;;;;;;8.80;2.97;;;21.70;58.80;;;;;;5092020;28;20229;-56
2023/07/30 07:02:22;;;;;;;8.65;3.25;;;21.70;58.20;;;;;;5092064;28;20217;-55
2023/07/30 07:04:50;;;;;;;10.70;3.97;;;21.70;58.20;;;;;;5091349;28;20191;-56
2023/07/30 07:07:17;;;;;;;9.25;3.35;;;21.70;58.20;;;;;;5092024;28;20215;-54
2023/07/30 07:09:45;;;;;;;10.60;3.55;;;21.70;58.20;;;;;;5091889;28;20194;-55
2023/07/30 07:12:12;;;;;;;9.30;3.45;;;21.70;58.20;;;;;;5091932;28;20214;-57
2023/07/30 07:14:42;;;;;;;9.05;3.45;;;21.70;58.10;;;;;;5092574;28;20190;-56
2023/07/30 07:17:10;;;;;;;12.90;3.67;;;21.70;58.10;;;;;;5095272;28;20230;-56
2023/07/30 07:19:38;;;;;;;11.85;3.35;;;21.70;58.20;;;;;;5094915;28;20190;-57
2023/07/30 07:22:08;;;;;;;9.57;3.55;;;21.70;58.10;;;;;;5095463;28;20292;-57
2023/07/30 07:24:38;;;;;;;10.88;3.45;;;21.70;58.10;;;;;;5095286;28;20194;-57
2023/07/30 07:27:06;;;;;;;10.27;3.97;;;21.70;58.10;;;;;;5095312;28;20225;-55
2023/07/30 07:29:34;;;;;;;9.13;3.67;;;21.70;58.10;;;;;;5095248;28;20182;-56
2023/07/30 07:32:01;;;;;;;7.72;3.00;;;21.70;58.10;;;;;;5094968;28;20238;-57
2023/07/30 07:34:30;;;;;;;10.45;3.67;;;21.70;58.10;;;;;;5094792;28;20198;-56
2023/07/30 07:36:58;;;;;;;9.27;3.83;;;21.70;58.10;;;;;;5094908;28;20214;-56
2023/07/30 07:39:25;;;;;;;9.35;3.58;;;21.70;58.10;;;;;;5095026;28;20197;-55
2023/07/30 07:41:53;;;;;;;8.23;3.25;;;21.70;58.10;;;;;;5095001;28;20210;-56
2023/07/30 07:44:21;;;;;;;10.82;3.20;;;21.70;58.10;;;;;;5094871;28;20186;-57
2023/07/30 07:46:49;;;;;;;8.30;3.13;;;21.70;58.00;;;;;;5094509;28;20641;-57
2023/07/30 07:49:16;;;;;;;10.10;3.25;;;21.70;58.00;;;;;;5094272;28;20186;-57
2023/07/30 07:51:45;;;;;;;9.07;3.40;;;21.70;58.70;;;;;;5094534;28;20213;-56
2023/07/30 07:54:12;;;;;;;10.27;3.67;;;21.70;58.00;;;;;;5094713;28;20236;-55
2023/07/30 07:56:40;;;;;;;12.25;4.03;;;21.70;58.00;;;;;;5094679;28;20218;-57
2023/07/30 07:59:07;;;;;;;10.15;3.45;;;21.70;58.00;;;;;;5094474;28;20218;-56
2023/07/30 08:01:35;;;;;;;9.63;3.75;;;21.70;58.00;;;;;;5094542;28;20218;-55
2023/07/30 08:04:03;;;;;;;11.85;3.78;;;21.70;58.00;;;;;;5094005;28;20248;-56
2023/07/30 08:06:30;;;;;;;11.80;4.10;;;21.70;57.90;;;;;;5094411;28;20226;-56
2023/07/30 08:09:01;;;;;;;10.80;3.65;;;21.70;58.00;;;;;;5093996;28;20773;-57
2023/07/30 08:11:28;;;;;;;10.05;3.72;;;21.70;58.00;;;;;;5094081;28;20270;-54
2023/07/30 08:13:56;;;;;;;9.50;3.42;;;21.70;58.00;;;;;;5094405;28;20189;-57
2023/07/30 08:16:25;;;;;;;9.63;4.03;;;21.70;57.90;;;;;;5093961;28;20731;-52
2023/07/30 08:18:52;;;;;;;11.23;3.72;;;21.70;57.90;;;;;;5093483;28;20220;-56
2023/07/30 08:21:20;;;;;;;12.80;3.70;;;21.70;58.00;;;;;;5093916;28;20281;-57
2023/07/30 08:23:48;;;;;;;7.05;3.47;;;21.70;57.90;;;;;;5094178;28;20187;-56
2023/07/30 08:26:17;;;;;;;8.32;3.72;;;21.70;58.00;;;;;;5092907;28;20273;-57
2023/07/30 08:28:44;;;;;;;13.45;3.95;;;21.70;57.90;;;;;;5093627;28;20277;-55
2023/07/30 08:31:11;;;;;;;10.45;3.58;;;21.70;57.90;;;;;;5093596;28;20230;-54
2023/07/30 08:33:39;;;;;;;8.07;3.63;;;21.70;57.90;;;;;;5093891;28;20202;-57
2023/07/30 08:36:06;;;;;;;10.82;4.32;;;21.70;57.90;;;;;;5093826;28;20197;-56
2023/07/30 08:38:34;;;;;;;8.25;3.85;;;21.70;57.90;;;;;;5093719;28;20218;-54
2023/07/30 08:41:01;;;;;;;10.80;3.83;;;21.70;57.90;;;;;;5093447;28;20200;-57
2023/07/30 08:43:32;;;;;;;11.98;3.85;;;21.70;58.30;;;;;;5093638;28;20217;-56
2023/07/30 08:46:01;;;;;;;8.50;3.63;;;21.70;57.90;;;;;;5093980;28;20198;-55
2023/07/30 08:48:28;;;;;;;8.20;3.47;;;21.70;58.00;;;;;;5093284;28;20210;-55
2023/07/30 08:50:58;;;;;;;11.25;4.00;;;21.70;58.00;;;;;;5093613;28;20186;-56
2023/07/30 08:53:26;;;;;;;11.25;3.63;;;21.70;58.00;;;;;;5093716;28;20225;-54
2023/07/30 08:55:55;;;;;;;10.23;3.63;;;21.70;58.00;;;;;;5093532;28;20225;-56
2023/07/30 08:58:26;;;;;;;10.85;3.75;;;21.70;58.00;;;;;;5093498;28;20312;-56
2023/07/30 09:00:56;;;;;;;8.82;3.50;;;21.70;58.00;;;;;;5093556;28;20197;-56
2023/07/30 09:03:26;;;;;;;7.70;3.72;;;21.70;58.10;;;;;;5093023;28;20218;-52
2023/07/30 09:05:53;;;;;;;9.32;3.90;;;21.70;58.10;;;;;;5093330;28;20274;-56
2023/07/30 09:08:22;;;;;;;8.98;3.50;;;21.70;58.10;;;;;;5093460;28;20263;-55
2023/07/30 09:10:50;;;;;;;8.88;3.72;;;21.70;58.20;;;;;;5093250;28;20197;-56
2023/07/30 09:13:23;;;;;;;11.00;3.47;;;21.70;58.20;;;;;;5093391;28;20221;-55
2023/07/30 09:15:50;;;;;;;7.72;3.47;;;21.70;58.20;;;;;;5094860;28;20190;-54
2023/07/30 09:18:19;;;;;;;9.80;3.75;;;21.70;58.20;;;;;;5092587;28;20286;-56
2023/07/30 09:20:47;;;;;;;9.85;3.75;;;21.70;58.20;;;;;;5093086;28;20190;-56
2023/07/30 09:23:14;;;;;;;8.98;3.92;;;21.70;58.20;;;;;;5093175;28;20297;-54
2023/07/30 09:25:42;;;;;;;12.55;3.88;;;21.70;58.30;;;;;;5092966;28;20182;-56
2023/07/30 09:28:09;;;;;;;12.18;3.60;;;21.70;58.30;;;;;;5092768;28;20230;-54
2023/07/30 09:30:36;;;;;;;8.43;3.63;;;21.70;58.30;;;;;;5092320;28;20240;-56
2023/07/30 09:33:04;;;;;;;8.30;4.05;;;21.70;58.30;;;;;;5092432;28;20213;-55
2023/07/30 09:35:35;;;;;;;11.00;3.60;;;21.70;58.30;;;;;;5093064;28;20193;-56
2023/07/30 09:38:04;;;;;;;8.35;3.58;;;21.70;58.40;;;;;;5091924;28;20226;-52
2023/07/30 09:40:35;;;;;;;8.43;3.95;;;21.70;58.40;;;;;;5092766;28;20186;-55
2023/07/30 09:43:04;;;;;;;9.18;3.88;;;21.70;58.50;;;;;;5092842;28;20217;-55
2023/07/30 09:45:35;;;;;;;10.30;3.75;;;21.70;58.50;;;;;;5092702;28;20186;-56
2023/07/30 09:48:05;;;;;;;8.07;3.58;;;21.70;58.50;;;;;;5091783;28;20222;-54
2023/07/30 09:50:34;;;;;;;9.10;4.03;;;21.70;58.60;;;;;;5092585;28;20225;-57
2023/07/30 09:53:02;;;;;;;9.30;3.80;;;21.70;58.50;;;;;;5092451;28;20271;-56
2023/07/30 09:55:30;;;;;;;12.55;3.80;;;21.70;58.60;;;;;;5092493;28;20221;-53
2023/07/30 09:57:58;;;;;;;12.18;4.00;;;21.70;58.60;;;;;;5092509;28;20314;-57
2023/07/30 10:00:26;;;;;;;10.68;3.53;;;21.70;58.60;;;;;;5092186;28;20663;-56
2023/07/30 10:02:56;;;;;;;12.82;4.38;;;21.70;58.60;;;;;;5091717;28;20221;-55
2023/07/30 10:05:30;;;;;;;10.55;4.30;;;21.70;58.70;;;;;;5092494;28;20182;-57
2023/07/30 10:08:03;;;;;;;7.63;3.65;;;21.70;58.70;;;;;;5092601;28;20217;-56
2023/07/30 10:10:32;;;;;;;10.63;4.20;;;21.70;58.70;;;;;;5092068;28;20228;-55
2023/07/30 10:13:03;;;;;;;9.85;3.85;;;21.70;59.40;;;;;;5092550;28;20213;-56
2023/07/30 10:15:31;;;;;;;9.10;3.97;;;21.70;58.90;;;;;;5092006;28;20656;-55
2023/07/30 10:17:59;;;;;;;12.00;4.03;;;21.70;58.80;;;;;;5091814;28;20224;-56
2023/07/30 10:20:29;;;;;;;10.75;3.60;;;21.70;58.90;;;;;;5092299;28;20201;-56
2023/07/30 10:22:59;;;;;;;11.82;4.00;;;21.70;58.90;;;;;;5092130;28;20218;-56
2023/07/30 10:25:30;;;;;;;9.43;4.05;;;21.70;59.00;;;;;;5092234;28;20193;-54
2023/07/30 10:28:01;;;;;;;10.30;4.13;;;21.70;59.00;;;;;;5092316;28;20224;-54
2023/07/30 10:30:33;;;;;;;10.98;4.28;;;21.70;59.00;;;;;;5092180;28;20269;-55
2023/07/30 10:33:02;;;;;;;11.90;4.40;;;21.70;59.00;;;;;;5091522;28;20279;-53
2023/07/30 10:35:41;;;;;;;12.00;4.63;;;21.70;59.10;;;;;;5092471;28;20197;-55
2023/07/30 10:38:24;;;;;;;8.07;3.97;;;21.70;59.20;;;;;;5092155;28;20210;-56
2023/07/30 10:41:02;;;;;;;10.93;4.05;;;21.70;59.20;;;;;;5091827;28;20225;-56
2023/07/30 10:43:30;;;;;;;9.82;3.83;;;21.70;59.30;;;;;;5092312;28;20248;-55
2023/07/30 10:45:57;;;;;;;15.23;4.72;;;21.70;59.30;;;;;;5091822;28;20222;-56
2023/07/30 10:48:35;;;;;;;10.80;4.57;;;21.70;59.30;;;;;;5091638;28;20291;-56
2023/07/30 10:51:04;;;;;;;11.60;4.05;;;21.70;59.30;;;;;;5095385;28;20182;-56
2023/07/30 10:53:35;;;;;;;15.23;4.18;;;21.70;59.30;;;;;;5096031;28;20218;-54
2023/07/30 10:56:04;;;;;;;12.20;4.57;;;21.70;59.30;;;;;;5095517;28;20656;-57
2023/07/30 10:58:33;;;;;;;12.27;4.55;;;21.70;59.40;;;;;;5095743;28;20233;-55
2023/07/30 11:01:02;;;;;;;12.07;4.50;;;21.70;59.40;;;;;;5095694;28;20197;-57
2023/07/30 11:03:31;;;;;;;12.85;4.75;;;21.70;59.50;;;;;;5095290;28;20305;-56
2023/07/30 11:06:13;;;;;;;11.25;4.78;;;21.70;59.50;;;;;;5095331;28;20196;-54
2023/07/30 11:08:45;;;;;;;11.77;4.50;;;21.70;59.60;;;;;;5093851;28;20241;-53
2023/07/30 11:11:12;;;;;;;9.00;4.00;;;21.70;59.60;;;;;;5095192;28;20182;-57
2023/07/30 11:16:57;;;;;;;10.68;4.18;;;21.70;59.70;;;;;;5095550;28;20185;-55
2023/07/30 11:19:25;;;;;;;10.73;5.22;;;21.70;59.70;;;;;;5095344;28;20213;-56
2023/07/30 11:21:54;;;;;;;12.35;4.78;;;21.70;59.70;;;;;;5095076;28;20338;-56
2023/07/30 11:24:34;;;;;;;11.23;4.13;;;21.70;59.80;;;;;;5094965;28;20702;-52
2023/07/30 11:27:02;;;;;;;9.90;3.72;;;21.70;59.80;;;;;;5095200;28;20270;-56
2023/07/30 11:29:30;;;;;;;11.35;4.68;;;21.70;59.90;;;;;;5095226;28;20198;-53
2023/07/30 11:31:58;;;;;;;13.15;4.63;;;21.70;59.90;;;;;;5094179;28;20245;-55
2023/07/30 11:34:27;;;;;;;11.07;4.70;;;21.70;60.00;;;;;;5095347;28;20205;-56
2023/07/30 11:36:55;;;;;;;10.95;4.00;;;21.70;60.10;;;;;;5094983;28;20220;-54
2023/07/30 11:39:25;;;;;;;11.90;5.15;;;21.70;60.10;;;;;;5094936;28;20267;-55
2023/07/30 11:41:53;;;;;;;11.77;5.05;;;21.70;60.10;;;;;;5094951;28;20217;-54
2023/07/30 11:44:33;;;;;;;12.82;4.53;;;21.70;60.10;;;;;;5094879;28;20194;-54
2023/07/30 11:47:01;;;;;;;14.00;4.38;;;21.70;60.20;;;;;;5094286;28;20225;-54
2023/07/30 11:49:28;;;;;;;12.05;4.95;;;21.70;60.20;;;;;;5094925;28;20190;-56
2023/07/30 11:52:06;;;;;;;11.65;4.28;;;21.70;60.20;;;;;;5094755;28;20218;-55
2023/07/30 11:54:35;;;;;;;12.82;4.25;;;21.70;60.30;;;;;;5094757;28;20185;-54
2023/07/30 11:57:02;;;;;;;11.13;4.50;;;21.70;60.30;;;;;;5094579;28;20263;-55
2023/07/30 11:59:31;;;;;;;10.05;5.18;;;21.70;60.30;;;;;;5094497;28;20218;-56
2023/07/30 12:01:59;;;;;;;11.93;4.45;;;21.70;60.30;;;;;;5092977;28;20222;-55
2023/07/30 12:04:31;;;;;;;12.15;4.85;;;21.70;60.40;;;;;;5094564;28;20186;-55
2023/07/30 12:06:58;;;;;;;11.70;4.45;;;21.70;60.50;;;;;;5094082;28;20309;-56
2023/07/30 12:09:26;;;;;;;10.80;4.78;;;21.70;60.50;;;;;;5094523;28;20189;-54
2023/07/30 12:11:57;;;;;;;10.23;4.18;;;21.70;60.50;;;;;;5094014;28;20225;-55
2023/07/30 12:14:30;;;;;;;11.35;4.35;;;21.70;60.60;;;;;;5094334;28;20632;-55
2023/07/30 12:16:57;;;;;;;11.90;4.53;;;21.70;60.60;;;;;;5093377;28;20707;-57
2023/07/30 12:19:25;;;;;;;13.02;5.38;;;21.70;60.70;;;;;;5094154;28;20218;-54
2023/07/30 12:21:52;;;;;;;12.90;4.72;;;21.70;60.70;;;;;;5094091;28;20615;-52
2023/07/30 12:24:20;;;;;;;11.75;5.10;;;21.70;60.70;;;;;;5094133;28;20243;-56
2023/07/30 12:26:47;;;;;;;11.80;5.10;;;21.70;60.80;;;;;;5094089;28;20594;-55
2023/07/30 12:29:16;;;;;;;14.48;5.68;;;21.70;60.80;;;;;;5093749;28;20277;-55
2023/07/30 12:31:45;;;;;;;11.25;5.40;;;21.80;60.90;;;;;;5093174;28;20230;-55
2023/07/30 12:34:13;;;;;;;13.93;5.05;;;21.70;60.90;;;;;;5094232;28;20380;-56
2023/07/30 12:36:40;;;;;;;13.80;5.30;;;21.80;61.00;;;;;;5093468;28;20186;-54
2023/07/30 12:39:08;;;;;;;10.82;4.47;;;21.80;61.00;;;;;;5093834;28;20213;-53
2023/07/30 12:41:35;;;;;;;9.90;4.40;;;21.70;60.90;;;;;;5093653;28;20183;-56
2023/07/30 12:44:04;;;;;;;15.30;5.03;;;21.80;61.00;;;;;;5094380;28;20304;-56
2023/07/30 12:46:33;;;;;;;15.65;4.97;;;21.70;61.00;;;;;;5093122;28;20225;-56
2023/07/30 12:49:04;;;;;;;12.65;4.55;;;21.80;61.10;;;;;;5093831;28;20214;-54
2023/07/30 12:51:33;;;;;;;9.75;4.68;;;21.70;61.10;;;;;;5093279;28;20182;-55
2023/07/30 12:54:00;;;;;;;10.48;5.22;;;21.80;61.20;;;;;;5093713;28;20218;-53
2023/07/30 12:56:28;;;;;;;12.38;4.68;;;21.70;61.10;;;;;;5093529;28;20244;-56
2023/07/30 12:58:55;;;;;;;9.05;4.55;;;21.70;61.10;;;;;;5093567;28;20226;-54
2023/07/30 13:01:23;;;;;;;11.38;4.53;;;21.70;61.20;;;;;;5092882;28;20190;-56